METAR Data
IDs: Format: Raw Decoded Include TAF

Data at: 1625 UTC 18 Feb 2019

METAR for:KSPW (Spencer Muni, IA, US)
Text:KSPW 181553Z AUTO 34010KT 10SM CLR M13/M18 A3042 RMK AO2 SLP328 T11331178
Temperature:-13.3°C ( 8°F)
Dewpoint:-17.8°C ( -0°F) [RH = 69%]
Pressure (altimeter):30.42 inches Hg (1030.2 mb) [Sea level pressure: 1032.8 mb]
Winds:from the NNW (340 degrees) at 12 MPH (10 knots; 5.1 m/s)
Visibility:10 or more sm (16+ km)
Ceiling:at least 12,000 feet AGL
Clouds:sky clear below 12,000 feet AGL
QC Flag:automated observation with no human augmentation